San Sebastian, Spain
Current Conditions -  °F | °C
As of 3:30 PM on Friday 28 Nov 2014 (Local Time) from LESO Reporting Station
Clear Clear  
Wind Chill: 66°   Ceiling: Unl
Heat Index: 66°   Visibility: 6mi
Dew Point: 48°   Wind: 9mph
Humidity: 52%   Direction: 100°E
Pressure: 29.15"   Gusts: NA
Location:  43.32°N, 1.98°W
Report Text: LESO 281430Z 10008KT 050V150 CAVOK 19/09 Q0987
Loading
Personal Weather Stations






























Interactive Weather Map New forecast layout! Learn more

10-Day Weather Forecast

Advertisements
Track Severe Weather on mobile